Time;durP1;ratioP1;P1;durP2;ratioP2;P2;SDS_P1;SDS_P2;PMS_P1;PMS_P2;Temp;Humidity;BMP_temperature;BMP_pressure;BME280_temperature;BME280_humidity;BME280_pressure;Samples;Min_cycle;Max_cycle;Signal;HPM_P1;HPM_P2
2022/06/04 00:01:48;;;;;;;4.57;3.00;;;;;;;18.97;50.75;99653.97;5010307;28;20038;-76
2022/06/04 00:04:15;;;;;;;9.27;3.15;;;;;;;19.00;50.78;99651.03;5010650;28;20034;-76
2022/06/04 00:06:42;;;;;;;9.20;3.92;;;;;;;19.01;50.80;99650.91;4998265;28;20034;-75
2022/06/04 00:09:09;;;;;;;4.65;3.35;;;;;;;19.03;50.75;99659.66;4973748;28;20128;-74
2022/06/04 00:17:05;;;;;;;4.80;3.70;;;;;;;18.86;51.17;99655.75;4990118;28;20050;-74
2022/06/04 00:19:30;;;;;;;6.03;3.50;;;;;;;18.82;51.17;99653.47;4990695;28;20046;-74
2022/06/04 00:21:56;;;;;;;11.75;3.55;;;;;;;18.80;51.24;99637.59;4990331;28;20045;-72
2022/06/04 00:24:21;;;;;;;5.85;3.30;;;;;;;18.80;51.18;99639.41;4989913;28;20038;-75
2022/06/04 00:26:47;;;;;;;4.28;2.45;;;;;;;18.72;51.30;99631.16;4989616;28;20026;-74
2022/06/04 00:29:13;;;;;;;7.13;3.45;;;;;;;18.66;51.64;99630.72;4995727;28;20034;-75
2022/06/04 00:31:38;;;;;;;4.60;3.25;;;;;;;18.61;51.73;99632.94;4992112;28;20050;-76
2022/06/04 00:34:05;;;;;;;6.10;4.07;;;;;;;18.58;51.63;99630.53;4991262;28;20089;-73
2022/06/04 00:36:32;;;;;;;4.65;3.38;;;;;;;18.55;51.66;99633.44;4990398;28;20038;-75
2022/06/04 00:38:59;;;;;;;8.85;4.35;;;;;;;18.53;52.03;99632.72;4991285;28;20034;-74
2022/06/04 00:41:48;;;;;;;5.80;3.50;;;;;;;18.52;51.96;99644.41;4972832;28;20041;-75
2022/06/04 00:44:13;;;;;;;5.60;3.33;;;;;;;18.47;51.91;99643.94;4989905;28;20451;-75
2022/06/04 00:46:41;;;;;;;13.00;3.53;;;;;;;18.43;52.26;99648.72;4989466;28;20034;-76
2022/06/04 00:49:20;;;;;;;7.35;3.50;;;;;;;18.42;52.49;99663.00;4990034;28;20510;-74
2022/06/04 00:51:48;;;;;;;4.15;2.60;;;;;;;18.47;52.04;99662.63;4989947;28;20461;-74
2022/06/04 00:54:15;;;;;;;5.03;3.35;;;;;;;18.54;52.15;99666.47;4989713;28;20100;-73
2022/06/04 00:57:02;;;;;;;4.63;3.50;;;;;;;18.56;52.24;99672.53;4989016;28;20030;-74
2022/06/04 00:59:54;;;;;;;5.55;3.10;;;;;;;18.60;51.78;99670.44;4989943;28;20045;-74
2022/06/04 01:02:57;;;;;;;7.97;3.88;;;;;;;18.53;52.02;99664.75;4982761;28;20405;-75
2022/06/04 01:05:42;;;;;;;7.60;3.38;;;;;;;18.45;52.36;99661.91;4989942;28;20458;-76
2022/06/04 01:08:25;;;;;;;7.70;3.30;;;;;;;18.39;52.20;99671.28;5008464;28;20054;-74
2022/06/04 01:10:59;;;;;;;7.40;3.95;;;;;;;18.36;52.42;99670.66;5009249;28;20119;-74
2022/06/04 01:14:06;;;;;;;6.10;4.07;;;;;;;18.30;52.56;99677.38;5009621;28;20056;-75
2022/06/04 01:17:05;;;;;;;10.82;4.05;;;;;;;18.25;52.84;99676.91;5007577;28;20125;-74
2022/06/04 01:20:03;;;;;;;6.63;3.55;;;;;;;18.21;52.99;99681.69;5008839;28;20163;-73
2022/06/04 01:22:49;;;;;;;13.90;4.20;;;;;;;18.19;52.77;99680.94;5008735;28;20571;-73
2022/06/04 01:25:37;;;;;;;6.82;4.03;;;;;;;18.13;52.99;99681.44;5008769;28;20382;-73
2022/06/04 01:28:08;;;;;;;7.82;2.92;;;;;;;18.10;52.75;99681.69;5007718;28;20113;-73
2022/06/04 01:30:39;;;;;;;5.65;4.00;;;;;;;18.07;52.96;99684.63;5008412;28;20029;-73
2022/06/04 01:33:14;;;;;;;13.23;4.18;;;;;;;18.04;52.78;99682.22;5008459;28;20030;-73
2022/06/04 01:36:01;;;;;;;6.13;3.70;;;;;;;17.98;53.10;99680.88;5008900;28;20450;-74
2022/06/04 01:38:34;;;;;;;5.47;4.18;;;;;;;17.93;53.28;99674.22;5008488;28;20110;-73
2022/06/04 01:41:17;;;;;;;5.80;3.83;;;;;;;17.89;53.07;99678.94;5008697;28;20041;-73
2022/06/04 01:44:12;;;;;;;5.47;3.33;;;;;;;17.84;53.22;99677.63;5008474;28;20034;-74
2022/06/04 01:46:48;;;;;;;10.80;3.70;;;;;;;17.84;53.24;99683.81;4980897;28;20042;-73
2022/06/04 01:49:26;;;;;;;4.57;3.80;;;;;;;17.74;53.66;99678.34;4990569;28;20048;-73
2022/06/04 01:51:57;;;;;;;8.27;4.05;;;;;;;17.67;53.96;99684.31;5008450;28;20587;-73
2022/06/04 01:54:36;;;;;;;6.38;3.83;;;;;;;17.64;54.15;99681.88;5008658;28;20130;-74
2022/06/04 01:57:09;;;;;;;5.50;3.60;;;;;;;17.60;54.47;99683.97;5007896;28;20064;-75
2022/06/04 01:59:42;;;;;;;4.85;3.40;;;;;;;17.56;54.30;99686.00;5008338;28;20088;-74
2022/06/04 02:02:13;;;;;;;7.88;4.80;;;;;;;17.43;54.59;99687.97;4990978;28;20033;-74
2022/06/04 02:04:43;;;;;;;7.20;4.35;;;;;;;17.33;55.04;99687.00;5008505;28;20100;-75
2022/06/04 02:07:30;;;;;;;4.85;3.60;;;;;;;17.28;55.19;99684.69;5007979;28;20042;-75
2022/06/04 02:10:19;;;;;;;6.03;4.20;;;;;;;17.33;55.20;99681.69;4990604;28;20104;-75
2022/06/04 02:12:48;;;;;;;5.13;3.88;;;;;;;17.31;55.18;99684.44;4992965;28;20432;-73
2022/06/04 02:15:19;;;;;;;8.20;3.63;;;;;;;17.30;54.90;99682.78;4988831;28;20042;-74
2022/06/04 02:17:49;;;;;;;9.77;4.03;;;;;;;17.18;55.42;99681.06;4988213;28;20038;-75
2022/06/04 02:20:15;;;;;;;7.50;4.28;;;;;;;17.07;55.53;99679.22;4988784;28;20398;-76
2022/06/04 02:22:41;;;;;;;6.45;4.20;;;;;;;17.01;55.82;99678.88;4989206;28;20036;-77
2022/06/04 02:25:09;;;;;;;5.95;4.95;;;;;;;16.97;56.15;99674.75;4988582;28;20536;-76
2022/06/04 02:27:35;;;;;;;5.95;3.65;;;;;;;16.92;56.37;99667.94;4988169;28;20049;-75
2022/06/04 02:30:01;;;;;;;5.72;4.20;;;;;;;16.88;56.39;99674.50;4971211;28;20034;-75
2022/06/04 02:32:51;;;;;;;4.75;3.30;;;;;;;16.95;56.09;99670.38;4971182;28;20456;-76
2022/06/04 02:35:42;;;;;;;8.27;4.13;;;;;;;16.93;55.94;99671.47;4988679;28;20080;-73
2022/06/04 02:38:21;;;;;;;7.38;4.50;;;;;;;16.84;56.75;99673.03;4988264;28;20030;-73
2022/06/04 02:41:18;;;;;;;6.10;3.88;;;;;;;16.77;56.87;99670.94;4991328;28;20058;-73
2022/06/04 02:43:59;;;;;;;6.32;3.78;;;;;;;16.70;57.05;99671.38;4974596;28;20030;-72
2022/06/04 02:46:35;;;;;;;6.65;3.85;;;;;;;16.73;56.99;99664.97;4991451;28;20042;-73
2022/06/04 02:49:10;;;;;;;7.53;4.72;;;;;;;16.73;56.96;99660.50;4991809;28;20033;-74
2022/06/04 02:51:40;;;;;;;5.68;3.83;;;;;;;16.65;57.26;99656.75;4992132;28;20061;-73
2022/06/04 02:54:19;;;;;;;8.43;4.30;;;;;;;16.62;57.30;99657.81;4991894;28;20492;-74
2022/06/04 02:56:46;;;;;;;9.60;4.53;;;;;;;16.61;57.49;99656.13;4991370;28;20045;-73
2022/06/04 02:59:14;;;;;;;5.25;3.58;;;;;;;16.58;57.60;99647.53;4992275;28;20034;-73
2022/06/04 03:01:44;;;;;;;5.35;4.07;;;;;;;16.57;57.43;99645.84;4992527;28;20042;-73
2022/06/04 03:04:10;;;;;;;7.18;4.05;;;;;;;16.57;57.57;99641.38;4994471;28;20214;-74
2022/06/04 03:06:37;;;;;;;10.30;4.05;;;;;;;16.51;57.81;99642.69;4991306;28;20551;-74
2022/06/04 03:09:06;;;;;;;10.45;4.63;;;;;;;16.43;57.95;99638.91;4992071;28;20497;-73
2022/06/04 03:11:39;;;;;;;10.68;4.97;;;;;;;16.39;58.32;99643.63;4975207;28;20045;-74
2022/06/04 03:14:04;;;;;;;19.23;5.03;;;;;;;16.38;58.44;99644.56;4975820;28;20030;-74
2022/06/04 03:16:36;;;;;;;8.25;4.43;;;;;;;16.30;58.80;99645.16;4992523;28;20049;-74
2022/06/04 03:19:02;;;;;;;7.72;4.45;;;;;;;16.25;58.85;99649.97;4995695;28;22686;-74
2022/06/04 03:21:28;;;;;;;6.63;4.13;;;;;;;16.25;58.96;99649.97;4995746;28;20034;-74
2022/06/04 03:23:53;;;;;;;11.90;4.57;;;;;;;16.22;59.07;99652.00;4994192;28;20034;-75
2022/06/04 03:26:19;;;;;;;6.18;4.30;;;;;;;16.22;58.80;99657.31;4992670;28;20034;-74
2022/06/04 03:28:44;;;;;;;8.35;4.07;;;;;;;16.20;58.95;99652.13;4993162;28;20122;-75
2022/06/04 03:31:10;;;;;;;9.63;4.57;;;;;;;16.23;59.23;99649.22;4984751;28;20050;-74
2022/06/04 03:33:35;;;;;;;7.25;4.95;;;;;;;16.24;58.88;99656.25;5010958;28;20057;-74
2022/06/04 03:36:00;;;;;;;9.65;5.35;;;;;;;16.17;59.00;99662.13;4992969;28;20122;-76
2022/06/04 03:38:26;;;;;;;7.93;4.47;;;;;;;16.16;58.85;99661.28;5010804;28;20054;-76
2022/06/04 03:40:51;;;;;;;7.75;4.82;;;;;;;16.18;58.79;99664.69;5010808;28;20486;-76
2022/06/04 03:43:16;;;;;;;9.27;5.45;;;;;;;16.05;59.37;99666.56;5010758;28;20553;-76
2022/06/04 03:45:42;;;;;;;9.85;4.50;;;;;;;16.00;59.57;99679.34;5011303;28;20103;-74
2022/06/04 03:48:07;;;;;;;12.38;5.18;;;;;;;16.00;59.16;99677.53;4993103;28;20413;-75
2022/06/04 03:50:33;;;;;;;18.27;6.13;;;;;;;15.96;59.31;99684.03;5010856;28;20030;-77
2022/06/04 03:52:58;;;;;;;7.22;4.93;;;;;;;15.92;59.47;99690.53;5010727;28;20030;-74
2022/06/04 03:55:25;;;;;;;7.50;4.30;;;;;;;15.89;59.64;99688.94;5010753;28;20512;-74
2022/06/04 03:57:52;;;;;;;8.65;4.65;;;;;;;15.83;59.77;99688.56;5009961;28;20409;-73
2022/06/04 04:00:27;;;;;;;8.80;4.25;;;;;;;15.80;59.96;99696.72;4992679;28;20042;-74
2022/06/04 04:02:56;;;;;;;14.90;5.07;;;;;;;15.73;59.93;99695.50;5010367;28;20451;-75
2022/06/04 04:05:25;;;;;;;8.63;5.10;;;;;;;15.60;60.28;99688.38;4993824;28;20035;-75
2022/06/04 04:07:50;;;;;;;8.40;4.93;;;;;;;15.53;60.70;99694.22;4989945;28;20038;-74
2022/06/04 04:10:16;;;;;;;9.85;4.90;;;;;;;15.56;60.62;99700.19;4990788;28;20034;-76
2022/06/04 04:12:42;;;;;;;9.77;5.65;;;;;;;15.63;60.54;99697.94;4991119;28;20054;-77
2022/06/04 04:15:09;;;;;;;5.53;4.80;;;;;;;15.58;60.13;99695.63;4990539;28;20041;-75
2022/06/04 04:17:36;;;;;;;10.88;5.03;;;;;;;15.53;60.64;99692.44;4990001;28;20041;-76
2022/06/04 04:20:05;;;;;;;9.27;5.93;;;;;;;15.49;60.74;99695.41;4990105;28;20047;-75
2022/06/04 04:22:30;;;;;;;8.95;5.70;;;;;;;15.48;60.67;99693.69;4990150;28;20049;-72
2022/06/04 04:24:56;;;;;;;11.18;6.03;;;;;;;15.41;60.82;99698.63;4972947;28;20426;-74
2022/06/04 04:27:21;;;;;;;6.93;5.18;;;;;;;15.40;60.84;99711.03;4972328;28;20120;-73
2022/06/04 04:29:47;;;;;;;8.48;5.50;;;;;;;15.46;60.84;99712.44;4989969;28;20030;-74
2022/06/04 04:32:12;;;;;;;9.65;5.00;;;;;;;15.46;60.69;99707.97;4990105;28;20114;-75
2022/06/04 04:34:37;;;;;;;9.85;5.25;;;;;;;15.41;60.99;99718.06;4990279;28;20375;-74
2022/06/04 04:37:03;;;;;;;8.13;5.82;;;;;;;15.37;60.99;99715.72;4990285;28;20116;-75
2022/06/04 04:39:29;;;;;;;9.60;5.68;;;;;;;15.36;61.32;99714.88;4990533;28;20494;-76
2022/06/04 04:41:54;;;;;;;7.68;4.78;;;;;;;15.41;61.17;99719.88;4990431;28;20042;-75
2022/06/04 04:44:19;;;;;;;8.75;5.97;;;;;;;15.50;60.94;99721.84;4972355;28;20034;-75
2022/06/04 04:46:45;;;;;;;9.38;5.38;;;;;;;15.49;61.14;99720.16;4989078;28;20038;-75
2022/06/04 04:49:11;;;;;;;8.23;5.47;;;;;;;15.40;61.23;99720.81;4989972;28;20540;-75
2022/06/04 04:51:36;;;;;;;9.55;4.88;;;;;;;15.41;61.60;99725.19;4989859;28;20687;-75
2022/06/04 04:54:02;;;;;;;7.88;5.60;;;;;;;15.44;61.29;99723.16;4989761;28;20038;-76
2022/06/04 04:56:28;;;;;;;5.97;5.00;;;;;;;15.38;61.54;99728.03;4989205;28;20038;-74
2022/06/04 04:58:54;;;;;;;15.70;6.95;;;;;;;15.35;61.88;99734.41;4989608;28;20041;-74
2022/06/04 05:01:22;;;;;;;7.97;4.88;;;;;;;15.44;61.63;99730.28;4989766;28;20061;-74
2022/06/04 05:03:47;;;;;;;9.18;5.88;;;;;;;15.55;61.68;99730.34;4989231;28;20034;-73
2022/06/04 05:06:15;;;;;;;13.88;5.47;;;;;;;15.63;61.28;99732.50;4989338;28;20584;-75
2022/06/04 05:08:40;;;;;;;8.85;5.55;;;;;;;15.73;60.94;99733.56;4992187;28;20033;-75
2022/06/04 05:11:14;;;;;;;6.28;4.55;;;;;;;15.84;61.04;99730.13;4989591;28;20030;-74
2022/06/04 05:13:40;;;;;;;7.32;5.07;;;;;;;15.80;60.71;99734.81;4989758;28;20042;-75
2022/06/04 05:16:05;;;;;;;9.18;5.70;;;;;;;15.87;60.60;99732.56;4988918;28;20041;-74
2022/06/04 05:18:31;;;;;;;7.63;5.07;;;;;;;15.87;60.63;99737.88;4972055;28;20125;-75
2022/06/04 05:21:26;;;;;;;9.52;6.20;;;;;;;15.80;60.74;99737.47;4990346;28;20041;-74
2022/06/04 05:23:56;;;;;;;10.82;6.03;;;;;;;15.78;61.03;99752.69;4979369;28;20038;-75
2022/06/04 05:26:23;;;;;;;8.43;5.40;;;;;;;15.80;61.54;99752.56;4989536;28;20034;-74
2022/06/04 05:28:49;;;;;;;11.10;5.07;;;;;;;15.64;61.75;99763.41;4989555;28;20093;-74
2022/06/04 05:31:14;;;;;;;9.23;5.13;;;;;;;15.62;61.97;99760.00;4991724;28;20118;-75
2022/06/04 05:33:40;;;;;;;10.73;6.15;;;;;;;15.72;61.41;99762.91;5009064;28;20125;-74
2022/06/04 05:36:05;;;;;;;8.90;5.97;;;;;;;15.64;61.92;99764.25;5007999;28;20041;-73
2022/06/04 05:38:34;;;;;;;8.52;5.88;;;;;;;15.68;61.96;99765.75;5008478;28;20045;-73
2022/06/04 05:41:07;;;;;;;9.25;5.50;;;;;;;15.72;61.96;99766.41;5008786;28;20044;-74
2022/06/04 05:43:33;;;;;;;10.48;6.38;;;;;;;15.68;62.21;99771.06;5008773;28;26043;-74
2022/06/04 05:46:09;;;;;;;8.88;5.53;;;;;;;15.67;62.00;99772.00;5008154;28;20037;-74
2022/06/04 05:48:43;;;;;;;12.30;5.70;;;;;;;15.70;62.17;99776.28;5009018;28;20026;-73
2022/06/04 05:51:11;;;;;;;14.68;5.72;;;;;;;15.78;62.36;99776.59;5008768;28;20420;-73
2022/06/04 05:53:36;;;;;;;11.25;6.82;;;;;;;15.86;61.90;99773.41;5008453;28;20057;-75
2022/06/04 05:56:02;;;;;;;9.13;6.32;;;;;;;15.94;61.77;99770.19;5008114;28;20366;-76
2022/06/04 05:58:27;;;;;;;10.23;5.53;;;;;;;15.91;61.65;99773.06;5008424;28;20048;-76
2022/06/04 06:01:00;;;;;;;14.60;6.50;;;;;;;15.92;61.71;99764.13;4995170;28;20061;-74
2022/06/04 06:03:25;;;;;;;11.50;5.60;;;;;;;15.92;61.85;99767.63;4988801;28;20045;-74
2022/06/04 06:05:50;;;;;;;12.25;6.35;;;;;;;16.02;61.77;99773.13;4988341;28;20034;-75
2022/06/04 06:08:16;;;;;;;10.07;5.72;;;;;;;16.06;61.67;99778.13;4988769;28;20038;-76
2022/06/04 06:10:44;;;;;;;7.63;6.05;;;;;;;16.03;61.67;99775.69;4990630;28;20386;-77
2022/06/04 06:13:10;;;;;;;16.33;7.05;;;;;;;16.05;61.76;99771.13;4991867;28;20061;-76
2022/06/04 06:15:36;;;;;;;8.90;5.97;;;;;;;16.00;61.46;99789.22;4994578;28;20036;-76
2022/06/04 06:18:03;;;;;;;7.38;5.43;;;;;;;16.09;61.92;99785.03;4993201;28;20093;-76
2022/06/04 06:20:28;;;;;;;8.75;6.40;;;;;;;16.18;61.33;99781.72;4992611;28;20050;-76
2022/06/04 06:22:54;;;;;;;14.93;7.03;;;;;;;16.23;61.16;99782.22;4993218;28;20030;-75
2022/06/04 06:25:20;;;;;;;12.05;6.38;;;;;;;16.12;61.71;99770.66;4992823;28;20034;-75
2022/06/04 06:27:45;;;;;;;9.55;7.22;;;;;;;16.17;61.70;99788.00;4993258;28;20034;-74
2022/06/04 06:30:11;;;;;;;9.98;5.90;;;;;;;16.22;61.62;99787.66;4994972;28;20057;-75
2022/06/04 06:32:36;;;;;;;11.63;6.72;;;;;;;16.33;60.94;99793.06;4992301;28;20034;-75
2022/06/04 06:35:03;;;;;;;7.53;5.38;;;;;;;16.46;60.69;99793.00;4975147;28;20026;-74
2022/06/04 06:37:29;;;;;;;15.90;6.57;;;;;;;16.55;60.67;99792.31;4980221;28;20035;-75
2022/06/04 06:39:55;;;;;;;10.32;7.15;;;;;;;16.56;60.96;99787.84;4996221;28;20035;-75
2022/06/04 06:42:22;;;;;;;6.20;5.45;;;;;;;16.67;60.64;99787.91;4994037;28;20045;-74
2022/06/04 06:44:47;;;;;;;8.23;6.65;;;;;;;16.69;60.41;99801.97;4996879;28;20439;-75
2022/06/04 06:47:13;;;;;;;8.02;6.43;;;;;;;16.71;60.51;99800.00;4975511;28;20050;-74
2022/06/04 06:49:39;;;;;;;7.70;6.40;;;;;;;16.72;60.30;99794.59;4992673;28;20049;-74
2022/06/04 06:52:06;;;;;;;9.95;5.95;;;;;;;16.77;60.62;99796.91;4994627;28;20074;-75
2022/06/04 06:54:36;;;;;;;10.32;6.68;;;;;;;16.84;60.57;99798.19;4992552;28;20512;-74
2022/06/04 06:57:04;;;;;;;14.07;6.95;;;;;;;16.80;60.17;99795.84;4992072;28;20069;-73
2022/06/04 06:59:30;;;;;;;11.27;5.88;;;;;;;16.84;59.95;99800.00;4992098;28;20042;-75
2022/06/04 07:01:57;;;;;;;10.15;7.63;;;;;;;16.84;60.23;99806.16;4992069;28;20057;-72
2022/06/04 07:04:23;;;;;;;9.93;6.88;;;;;;;16.84;60.19;99806.16;4974507;28;20034;-73
2022/06/04 07:06:55;;;;;;;9.13;6.55;;;;;;;16.82;60.67;99800.09;4991633;28;20116;-73
2022/06/04 07:09:43;;;;;;;8.73;6.47;;;;;;;16.92;60.29;99801.09;4993974;28;20125;-74
2022/06/04 07:12:10;;;;;;;15.15;7.70;;;;;;;16.92;59.77;99801.09;4992531;28;20054;-74
2022/06/04 07:14:35;;;;;;;9.32;7.28;;;;;;;16.86;59.71;99812.22;4992062;28;20030;-74
2022/06/04 07:17:03;;;;;;;11.52;6.85;;;;;;;16.88;60.44;99807.66;4992126;28;20041;-74
2022/06/04 07:19:28;;;;;;;15.02;7.57;;;;;;;17.00;60.83;99808.50;4995721;28;20043;-76
2022/06/04 07:21:55;;;;;;;18.38;8.13;;;;;;;17.13;63.11;99803.09;4995636;28;20035;-75
2022/06/04 07:24:21;;;;;;;11.20;6.68;;;;;;;17.26;59.40;99803.88;4993239;28;20039;-75
2022/06/04 07:26:47;;;;;;;9.57;6.03;;;;;;;17.33;58.98;99796.25;4990077;28;20045;-75
2022/06/04 07:29:13;;;;;;;7.97;6.93;;;;;;;17.43;60.03;99793.75;4994648;28;20031;-77
2022/06/04 07:31:39;;;;;;;11.88;6.88;;;;;;;17.41;58.94;99803.66;4978411;28;20027;-77
2022/06/04 07:34:06;;;;;;;11.77;6.72;;;;;;;17.31;59.29;99807.03;4995593;28;20391;-77
2022/06/04 07:36:34;;;;;;;9.80;7.00;;;;;;;17.40;59.43;99802.81;4991390;28;20038;-74
2022/06/04 07:39:00;;;;;;;8.95;5.57;;;;;;;17.52;59.01;99809.88;4992451;28;20050;-75
2022/06/04 07:41:35;;;;;;;8.68;5.63;;;;;;;17.53;59.07;99810.72;5001342;28;20048;-75
2022/06/04 07:44:01;;;;;;;11.90;7.28;;;;;;;17.70;58.31;99807.56;4993806;28;20033;-74
2022/06/04 07:46:29;;;;;;;9.30;6.80;;;;;;;17.71;58.34;99801.25;4976660;28;20570;-75
2022/06/04 07:48:56;;;;;;;11.90;5.85;;;;;;;17.74;58.36;99803.66;5012466;28;20401;-74
2022/06/04 07:51:21;;;;;;;9.77;6.93;;;;;;;17.84;58.09;99808.31;5012212;28;20130;-75
2022/06/04 07:53:47;;;;;;;8.35;7.00;;;;;;;17.82;57.61;99795.13;5012239;28;20417;-75
2022/06/04 07:56:16;;;;;;;8.43;6.45;;;;;;;17.85;58.03;99788.69;5011814;28;20042;-75
2022/06/04 07:58:42;;;;;;;9.35;7.07;;;;;;;17.88;57.71;99783.97;5000301;28;20105;-73
2022/06/04 08:01:10;;;;;;;12.52;7.03;;;;;;;18.00;57.63;99784.81;4996396;28;20042;-75
2022/06/04 08:03:37;;;;;;;9.48;5.80;;;;;;;18.07;57.30;99788.66;4993044;28;20105;-74
2022/06/04 08:06:04;;;;;;;11.63;7.35;;;;;;;18.05;57.38;99781.75;4990954;28;20037;-75
2022/06/04 08:08:32;;;;;;;12.57;6.50;;;;;;;18.06;57.70;99788.78;4991083;28;20026;-75
2022/06/04 08:10:59;;;;;;;9.73;6.95;;;;;;;18.20;56.81;99791.19;4990617;28;20034;-74
2022/06/04 08:13:30;;;;;;;11.77;6.90;;;;;;;18.22;56.44;99794.59;4994409;28;20062;-75
2022/06/04 08:15:58;;;;;;;9.80;7.25;;;;;;;18.20;56.80;99793.88;4993253;28;20034;-75
2022/06/04 08:18:24;;;;;;;10.30;6.57;;;;;;;18.18;57.23;99785.97;4995139;28;20041;-74
2022/06/04 08:20:49;;;;;;;12.18;7.15;;;;;;;18.32;57.04;99784.84;4978316;28;20035;-74
2022/06/04 08:23:15;;;;;;;10.73;8.30;;;;;;;18.22;57.11;99782.09;4983704;28;20049;-73
2022/06/04 08:25:43;;;;;;;13.60;7.97;;;;;;;18.08;57.92;99787.69;5005679;28;20104;-72
2022/06/04 08:28:09;;;;;;;8.90;6.53;;;;;;;18.12;58.02;99786.47;4999993;28;20042;-73
2022/06/04 08:30:35;;;;;;;11.98;7.53;;;;;;;18.15;58.03;99796.91;5001085;28;20036;-72
2022/06/04 08:33:01;;;;;;;19.25;8.05;;;;;;;18.06;57.83;99802.13;4997919;28;20054;-75
2022/06/04 08:35:27;;;;;;;16.05;8.80;;;;;;;17.96;58.61;99802.84;4999633;28;20092;-73
2022/06/04 08:37:52;;;;;;;19.77;10.27;;;;;;;18.10;58.29;99809.75;4997101;28;20534;-73
2022/06/04 08:40:36;;;;;;;12.30;8.27;;;;;;;18.20;58.07;99828.56;5000931;28;20634;-74
2022/06/04 08:43:01;;;;;;;9.80;7.18;;;;;;;18.42;57.85;99825.84;4996209;28;20418;-57
2022/06/04 08:45:27;;;;;;;13.38;9.43;;;;;;;18.79;56.63;99830.03;4998173;28;20038;-60
2022/06/04 08:47:53;;;;;;;9.23;7.70;;;;;;;19.00;56.17;99827.38;5002799;28;20049;-59
2022/06/04 08:50:24;;;;;;;12.30;7.95;;;;;;;19.11;55.73;99839.84;5009894;28;20034;-58
2022/06/04 08:53:01;;;;;;;13.13;7.13;;;;;;;19.16;55.39;99834.97;4992531;28;20033;-59
2022/06/04 08:58:45;;;;;;;9.43;7.22;;;;;;;19.19;55.37;99834.69;5010780;28;20124;-61
2022/06/04 09:01:22;;;;;;;14.32;8.13;;;;;;;19.62;54.57;99836.41;5012784;28;20041;-64
2022/06/04 09:04:03;;;;;;;10.93;7.57;;;;;;;19.85;53.56;99837.94;5013440;28;20033;-63
2022/06/04 09:06:33;;;;;;;13.93;8.50;;;;;;;19.99;54.11;99841.25;4990217;28;20057;-62
2022/06/04 09:09:17;;;;;;;13.52;6.85;;;;;;;20.09;55.00;99845.66;5003072;28;20042;-62
2022/06/04 09:11:54;;;;;;;12.52;7.80;;;;;;;20.10;53.82;99841.97;5007361;28;20037;-62
2022/06/04 09:14:22;;;;;;;10.27;7.82;;;;;;;20.23;53.04;99839.09;5006939;28;20751;-63
2022/06/04 09:16:53;;;;;;;14.27;8.10;;;;;;;20.42;52.52;99832.09;5004524;28;20041;-63
2022/06/04 09:19:22;;;;;;;12.93;8.23;;;;;;;20.75;51.72;99839.78;5004352;28;20668;-61
2022/06/04 09:21:48;;;;;;;21.10;9.02;;;;;;;21.35;50.31;99838.78;5004345;28;20177;-62
2022/06/04 09:24:14;;;;;;;14.93;8.95;;;;;;;21.98;48.77;99831.00;5005329;28;20049;-60
2022/06/04 09:27:04;;;;;;;11.48;8.00;;;;;;;21.93;48.89;99833.31;5004318;28;20073;-59
2022/06/04 09:30:08;;;;;;;14.75;7.28;;;;;;;22.32;48.05;99825.06;5004075;28;20111;-64
2022/06/04 09:32:45;;;;;;;10.45;7.55;;;;;;;22.33;48.04;99825.94;4952963;28;20050;-63
2022/06/04 09:35:23;;;;;;;14.65;7.85;;;;;;;22.64;47.35;99829.09;4996955;28;20041;-65
2022/06/04 09:37:50;;;;;;;11.70;7.80;;;;;;;23.08;45.90;99837.28;5003692;28;20057;-73
2022/06/04 09:40:30;;;;;;;13.88;8.85;;;;;;;23.28;45.53;99829.88;5004359;28;20715;-70
2022/06/04 09:43:14;;;;;;;9.18;7.60;;;;;;;23.08;46.19;99840.81;5004805;28;20785;-70
2022/06/04 09:45:40;;;;;;;14.80;9.25;;;;;;;22.72;46.51;99835.44;5003172;28;20082;-71
2022/06/04 09:48:29;;;;;;;11.57;7.78;;;;;;;22.71;47.01;99835.56;5003876;28;20033;-71
2022/06/04 09:51:01;;;;;;;12.98;9.05;;;;;;;22.37;47.57;99841.56;5001666;28;20643;-71
2022/06/04 09:53:41;;;;;;;10.98;9.00;;;;;;;22.18;48.40;99847.03;5004347;28;20536;-71
2022/06/04 09:56:14;;;;;;;12.90;8.15;;;;;;;22.66;47.41;99851.31;5004893;28;20040;-69
2022/06/04 09:58:46;;;;;;;12.88;8.50;;;;;;;23.46;45.57;99854.09;5006753;28;20042;-70
2022/06/04 10:01:14;;;;;;;11.68;10.00;;;;;;;24.18;44.22;99858.25;5004285;28;20049;-71
2022/06/04 10:03:40;;;;;;;12.98;8.43;;;;;;;25.05;42.16;99849.91;5005319;28;20069;-71
2022/06/04 10:06:11;;;;;;;11.30;7.70;;;;;;;25.42;41.54;99841.31;4997776;28;20121;-72
2022/06/04 10:11:32;;;;;;;8.70;7.15;;;;;;;26.46;39.72;99836.81;4984459;28;20141;-70
2022/06/04 10:13:58;;;;;;;12.63;8.57;;;;;;;26.32;39.62;99835.69;4984859;28;20045;-71
2022/06/04 10:16:36;;;;;;;12.40;8.75;;;;;;;26.31;39.46;99846.69;4984396;28;20042;-72
2022/06/04 10:19:13;;;;;;;11.13;8.48;;;;;;;26.67;38.83;99838.91;4985172;28;20510;-72
2022/06/04 10:21:41;;;;;;;11.30;9.15;;;;;;;26.82;38.73;99844.41;4985124;28;20038;-72
2022/06/04 10:24:18;;;;;;;18.65;8.95;;;;;;;27.45;37.50;99841.59;4984686;28;20030;-72
2022/06/04 10:26:58;;;;;;;13.38;8.43;;;;;;;27.40;37.57;99844.84;4984173;28;20525;-71
2022/06/04 10:29:55;;;;;;;20.88;8.07;;;;;;;27.81;36.85;99852.53;4984961;28;20062;-70
2022/06/04 10:32:43;;;;;;;10.65;7.53;;;;;;;28.08;36.67;99839.41;4984971;28;20532;-73
2022/06/04 10:35:21;;;;;;;14.25;8.32;;;;;;;28.20;36.22;99838.72;4985368;28;20100;-71
2022/06/04 10:38:28;;;;;;;14.35;8.10;;;;;;;28.21;36.38;99836.88;4984327;28;20399;-70
2022/06/04 10:41:06;;;;;;;10.48;7.70;;;;;;;27.75;37.43;99831.63;4920861;28;20148;-70
2022/06/04 10:43:55;;;;;;;14.65;7.18;;;;;;;28.22;37.03;99830.41;4984346;28;20615;-71
2022/06/04 10:46:48;;;;;;;13.15;8.15;;;;;;;28.34;36.30;99834.31;4983418;28;20046;-71
2022/06/04 10:49:32;;;;;;;10.38;7.15;;;;;;;28.28;36.46;99835.09;4984213;28;20406;-71
2022/06/04 10:52:15;;;;;;;13.90;8.05;;;;;;;28.24;36.97;99829.19;4998065;28;20678;-72
2022/06/04 10:54:49;;;;;;;10.52;7.57;;;;;;;28.45;36.58;99831.16;5003672;28;20370;-72
2022/06/04 10:57:34;;;;;;;16.75;7.35;;;;;;;28.10;37.30;99824.63;5002726;28;20171;-72
2022/06/04 11:00:09;;;;;;;10.75;7.25;;;;;;;27.35;38.32;99825.59;5002291;28;20094;-71
2022/06/04 11:02:46;;;;;;;14.68;7.82;;;;;;;26.80;40.11;99824.78;4988111;28;20041;-71
2022/06/04 11:05:45;;;;;;;16.05;7.18;;;;;;;26.52;40.78;99824.44;4993253;28;20053;-72
2022/06/04 11:08:37;;;;;;;14.93;8.80;;;;;;;25.82;42.10;99828.78;4995692;28;20552;-73
2022/06/04 11:11:14;;;;;;;14.50;7.93;;;;;;;25.58;43.03;99826.13;4997731;28;20042;-71
2022/06/04 11:13:49;;;;;;;16.13;9.50;;;;;;;25.22;43.53;99838.13;4995579;28;20072;-71
2022/06/04 11:16:25;;;;;;;9.23;7.97;;;;;;;24.82;44.79;99831.66;4987102;28;20054;-72
2022/06/04 11:18:56;;;;;;;12.15;7.97;;;;;;;24.61;45.19;99828.59;4988708;28;20136;-70
2022/06/04 11:21:36;;;;;;;10.35;7.30;;;;;;;24.53;45.90;99834.81;4988125;28;20477;-70
2022/06/04 11:24:11;;;;;;;19.60;8.27;;;;;;;24.60;45.77;99827.75;4987800;28;20037;-70
2022/06/04 11:26:46;;;;;;;14.07;9.98;;;;;;;24.47;45.95;99827.41;4987534;28;20046;-69
2022/06/04 11:29:14;;;;;;;12.98;8.88;;;;;;;24.08;47.13;99835.97;4988572;28;20038;-70
2022/06/04 11:32:35;;;;;;;11.57;7.85;;;;;;;24.21;46.86;99835.50;4988341;28;20047;-70
2022/06/04 11:35:09;;;;;;;15.18;9.02;;;;;;;24.28;47.12;99833.03;4897733;28;20772;-71
2022/06/04 11:37:56;;;;;;;17.30;9.90;;;;;;;24.23;47.21;99830.81;4988001;28;20042;-72
2022/06/04 11:41:00;;;;;;;12.15;8.73;;;;;;;24.38;46.43;99836.41;4987964;28;20054;-70
2022/06/04 11:47:55;;;;;;;13.20;8.35;;;;;;;23.94;47.59;99828.50;4942698;28;20121;-78
2022/06/04 11:54:48;;;;;;;14.65;9.38;;;;;;;23.99;47.30;99820.78;4946643;28;20193;-79
2022/06/04 11:57:37;;;;;;;10.60;9.13;;;;;;;23.90;47.28;99817.22;4974858;28;20116;-71
2022/06/04 12:00:12;;;;;;;11.50;8.13;;;;;;;24.00;47.54;99817.09;4984264;28;20042;-71
2022/06/04 12:02:52;;;;;;;18.73;7.55;;;;;;;24.11;47.45;99832.09;4985002;28;20132;-71
2022/06/04 12:05:30;;;;;;;15.18;9.20;;;;;;;24.28;46.92;99822.25;4989053;28;20129;-71
2022/06/04 12:07:58;;;;;;;14.48;10.52;;;;;;;24.34;47.00;99826.97;4986550;28;20084;-71
2022/06/04 12:10:39;;;;;;;11.85;7.35;;;;;;;24.30;47.55;99829.16;4986649;28;20113;-71
2022/06/04 12:13:23;;;;;;;13.15;8.10;;;;;;;24.42;46.96;99835.09;4986692;28;20043;-71